Serafimovic, Russia
Current Conditions -  °F | °C
As of 8:00 PM on Monday 22 Dec 2014 (Local Time) from URWW Reporting Station
Clear Clear  
Wind Chill: 22°   Ceiling: Unl
Heat Index: 32°   Visibility: 6mi
Dew Point: 28°   Wind: 13mph
Humidity: 87%   Direction: 250°WSW
Pressure: 29.88"   Gusts: NA
Location:  49.57°N, 42.75°E
Report Text: URWW 221700Z 25006MPS CAVOK M00/M02 Q1012 NOSIG RMK 29250060
Loading
Personal Weather Stations






























Interactive Weather Map New forecast layout! Learn more

10-Day Weather Forecast

Advertisements
Track Severe Weather on mobile